Time;durP1;ratioP1;P1;durP2;ratioP2;P2;SDS_P1;SDS_P2;PMS_P1;PMS_P2;Temp;Humidity;BMP_temperature;BMP_pressure;BME280_temperature;BME280_humidity;BME280_pressure;Samples;Min_cycle;Max_cycle;Signal;HPM_P1;HPM_P2
2023/05/23 00:00:18;;;;;;;5.00;3.67;;;16.60;99.90;;;;;;5113918;28;20450;-85
2023/05/23 00:02:45;;;;;;;7.13;3.70;;;16.60;99.90;;;;;;5113984;28;20432;-86
2023/05/23 00:05:14;;;;;;;5.87;3.93;;;16.60;99.90;;;;;;5114175;28;20526;-86
2023/05/23 00:07:41;;;;;;;8.23;3.93;;;16.60;99.90;;;;;;5114307;28;20458;-86
2023/05/23 00:10:08;;;;;;;3.90;3.20;;;16.60;99.90;;;;;;5114309;28;20447;-86
2023/05/23 00:12:38;;;;;;;7.20;4.43;;;16.70;99.90;;;;;;5113685;28;20561;-86
2023/05/23 00:15:07;;;;;;;5.63;3.43;;;16.70;99.90;;;;;;5113972;28;20838;-86
2023/05/23 00:17:36;;;;;;;7.20;4.10;;;16.70;99.90;;;;;;5114318;28;20442;-86
2023/05/23 00:20:03;;;;;;;9.40;5.17;;;16.80;99.90;;;;;;5114026;28;20546;-86
2023/05/23 00:22:30;;;;;;;10.53;5.10;;;16.80;99.90;;;;;;5113737;28;20443;-86
2023/05/23 00:25:00;;;;;;;10.07;4.47;;;16.90;99.90;;;;;;5113903;28;20464;-85
2023/05/23 00:27:27;;;;;;;8.23;4.40;;;16.90;99.90;;;;;;5113968;28;20839;-86
2023/05/23 00:29:55;;;;;;;9.00;5.00;;;16.90;99.90;;;;;;5114137;28;20443;-86
2023/05/23 00:32:22;;;;;;;13.50;6.03;;;16.90;99.90;;;;;;5113891;28;20447;-85
2023/05/23 00:34:49;;;;;;;9.57;5.00;;;16.90;99.90;;;;;;5113260;28;20999;-84
2023/05/23 00:37:15;;;;;;;11.70;6.40;;;16.90;99.90;;;;;;5113440;28;20457;-84
2023/05/23 00:39:42;;;;;;;13.57;7.33;;;16.90;99.90;;;;;;5113718;28;20455;-84
2023/05/23 00:42:09;;;;;;;12.50;5.30;;;16.90;99.90;;;;;;5113431;28;20442;-84
2023/05/23 00:44:36;;;;;;;12.27;6.30;;;16.90;99.90;;;;;;5113561;28;20554;-84
2023/05/23 00:47:07;;;;;;;19.13;7.90;;;16.90;99.90;;;;;;5113382;28;20934;-84
2023/05/23 00:49:34;;;;;;;13.37;6.17;;;16.90;99.90;;;;;;5113642;28;20431;-84
2023/05/23 00:52:02;;;;;;;11.57;6.53;;;16.90;99.90;;;;;;5113958;28;20442;-84
2023/05/23 00:54:30;;;;;;;12.30;7.03;;;16.90;99.90;;;;;;5113370;28;20585;-84
2023/05/23 00:56:58;;;;;;;16.80;7.57;;;17.00;99.90;;;;;;5113563;28;20439;-84
2023/05/23 00:59:26;;;;;;;15.67;6.80;;;17.00;99.90;;;;;;5113183;28;20950;-84
2023/05/23 01:01:55;;;;;;;14.97;6.70;;;17.10;99.90;;;;;;5113185;28;20944;-84
2023/05/23 01:04:25;;;;;;;11.20;6.83;;;17.00;99.90;;;;;;5113616;28;20460;-84
2023/05/23 01:06:53;;;;;;;15.30;7.60;;;17.00;99.90;;;;;;5113418;28;20451;-84
2023/05/23 01:09:20;;;;;;;18.57;9.00;;;17.00;99.90;;;;;;5113442;28;20443;-84
2023/05/23 01:11:58;;;;;;;19.17;6.83;;;17.00;99.90;;;;;;5113413;28;20455;-84
2023/05/23 01:14:35;;;;;;;18.90;7.93;;;16.90;99.90;;;;;;5117209;27;20486;-84
2023/05/23 01:17:07;;;;;;;23.60;12.07;;;16.90;99.90;;;;;;5117324;28;20430;-84
2023/05/23 01:19:56;;;;;;;15.90;8.47;;;16.90;99.90;;;;;;5116924;28;20800;-84
2023/05/23 01:22:49;;;;;;;23.40;9.90;;;16.90;99.90;;;;;;5117140;28;20432;-84
2023/05/23 01:25:27;;;;;;;19.70;9.13;;;16.90;99.90;;;;;;5117956;28;20460;-84
2023/05/23 01:27:59;;;;;;;25.60;8.67;;;16.90;99.90;;;;;;5116851;28;20422;-84
2023/05/23 01:30:30;;;;;;;22.77;9.23;;;16.90;99.90;;;;;;5117121;28;20431;-84
2023/05/23 01:32:59;;;;;;;17.57;8.10;;;16.90;99.90;;;;;;5117083;28;20436;-84
2023/05/23 01:35:27;;;;;;;18.47;8.53;;;16.90;99.90;;;;;;5116861;28;20479;-84
2023/05/23 01:37:53;;;;;;;17.30;8.47;;;16.90;99.90;;;;;;5116867;28;20456;-84
2023/05/23 01:40:20;;;;;;;27.33;10.70;;;16.90;99.90;;;;;;5116884;27;20496;-84
2023/05/23 01:42:48;;;;;;;24.20;8.83;;;16.90;99.90;;;;;;5116836;28;20451;-84
2023/05/23 01:45:17;;;;;;;16.13;9.47;;;16.90;99.90;;;;;;5116736;28;20474;-84
2023/05/23 01:47:47;;;;;;;19.13;10.33;;;16.90;99.90;;;;;;5116460;28;20531;-84
2023/05/23 01:50:14;;;;;;;25.33;9.37;;;16.90;99.90;;;;;;5116647;28;20443;-83
2023/05/23 01:52:41;;;;;;;24.87;9.10;;;16.90;99.90;;;;;;5116275;28;20461;-84
2023/05/23 01:55:10;;;;;;;24.50;10.23;;;16.90;99.90;;;;;;5116371;28;20479;-84
2023/05/23 01:57:38;;;;;;;21.10;9.23;;;16.90;99.90;;;;;;5116471;28;20435;-84
2023/05/23 02:00:07;;;;;;;22.70;11.73;;;16.90;99.90;;;;;;5116626;28;20436;-84
2023/05/23 02:02:35;;;;;;;25.27;12.80;;;16.90;99.90;;;;;;5116376;28;20452;-83
2023/05/23 02:05:02;;;;;;;29.30;11.17;;;16.90;99.90;;;;;;5115923;28;20464;-84
2023/05/23 02:07:28;;;;;;;24.20;11.13;;;16.90;99.90;;;;;;5116282;28;20452;-83
2023/05/23 02:09:56;;;;;;;25.60;10.80;;;16.90;99.90;;;;;;5115937;28;20927;-84
2023/05/23 02:12:22;;;;;;;36.70;12.57;;;16.90;99.90;;;;;;5115715;28;20476;-84
2023/05/23 02:14:50;;;;;;;31.27;12.80;;;16.80;99.90;;;;;;5115823;28;20504;-84
2023/05/23 02:17:18;;;;;;;28.00;11.00;;;16.90;99.90;;;;;;5116274;28;20459;-84
2023/05/23 02:19:46;;;;;;;25.93;11.47;;;16.80;99.90;;;;;;5115813;28;20539;-84
2023/05/23 02:22:13;;;;;;;20.50;11.43;;;16.90;99.90;;;;;;5115692;28;20436;-84
2023/05/23 02:24:39;;;;;;;27.50;13.07;;;16.90;99.90;;;;;;5115432;28;20468;-84
2023/05/23 02:27:07;;;;;;;27.50;12.10;;;16.90;99.90;;;;;;5115891;28;20538;-84
2023/05/23 02:29:33;;;;;;;28.00;11.97;;;16.80;99.90;;;;;;5115888;28;20471;-84
2023/05/23 02:32:00;;;;;;;23.47;10.47;;;16.80;99.90;;;;;;5115825;28;20452;-84
2023/05/23 02:34:27;;;;;;;30.70;13.47;;;16.80;99.90;;;;;;5115914;28;20494;-84
2023/05/23 02:36:55;;;;;;;29.20;12.70;;;16.80;99.90;;;;;;5115350;28;20452;-84
2023/05/23 02:39:22;;;;;;;25.27;10.30;;;16.80;99.90;;;;;;5115679;28;20444;-84
2023/05/23 02:41:49;;;;;;;36.63;12.00;;;16.80;99.90;;;;;;5115863;28;20452;-84
2023/05/23 02:44:18;;;;;;;30.23;11.53;;;16.80;99.90;;;;;;5115425;28;20463;-84
2023/05/23 02:46:45;;;;;;;30.43;13.03;;;16.80;99.90;;;;;;5115223;28;20972;-84
2023/05/23 02:49:11;;;;;;;32.07;14.23;;;16.80;99.90;;;;;;5115427;28;20451;-84
2023/05/23 02:51:38;;;;;;;32.53;13.50;;;16.80;99.90;;;;;;5115144;28;20447;-84
2023/05/23 02:54:06;;;;;;;30.43;13.23;;;16.80;99.90;;;;;;5115263;28;20471;-84
2023/05/23 02:56:33;;;;;;;25.23;12.30;;;16.90;99.90;;;;;;5115279;28;20486;-84
2023/05/23 02:59:00;;;;;;;30.47;13.50;;;16.90;99.90;;;;;;5114977;28;20818;-84
2023/05/23 03:01:26;;;;;;;36.80;11.40;;;16.90;99.90;;;;;;5115232;28;20444;-84
2023/05/23 03:03:53;;;;;;;28.90;11.63;;;16.90;99.90;;;;;;5115108;28;20494;-84
2023/05/23 03:06:21;;;;;;;27.80;12.67;;;16.90;99.90;;;;;;5115153;28;20512;-84
2023/05/23 03:08:48;;;;;;;35.40;14.17;;;16.90;99.90;;;;;;5115056;28;20451;-84
2023/05/23 03:11:16;;;;;;;27.53;12.93;;;17.00;99.90;;;;;;5114740;28;20447;-84
2023/05/23 03:13:43;;;;;;;33.20;13.73;;;16.90;99.90;;;;;;5114489;28;20487;-84
2023/05/23 03:16:11;;;;;;;31.83;12.40;;;16.90;99.90;;;;;;5114592;28;20502;-84
2023/05/23 03:18:40;;;;;;;28.63;13.37;;;16.90;99.90;;;;;;5114921;28;20454;-84
2023/05/23 03:21:08;;;;;;;28.93;12.07;;;16.90;99.90;;;;;;5114542;28;20943;-84
2023/05/23 03:23:35;;;;;;;32.40;12.47;;;16.90;99.90;;;;;;5114822;28;20496;-84
2023/05/23 03:26:02;;;;;;;31.33;12.73;;;16.90;99.90;;;;;;5114528;28;20931;-84
2023/05/23 03:28:31;;;;;;;31.00;13.97;;;16.90;99.90;;;;;;5114753;28;20500;-83
2023/05/23 03:30:57;;;;;;;30.83;13.43;;;16.90;99.90;;;;;;5114394;28;20444;-84
2023/05/23 03:33:24;;;;;;;34.37;14.80;;;16.90;99.90;;;;;;5114324;28;20934;-84
2023/05/23 03:35:51;;;;;;;30.00;13.20;;;16.90;99.90;;;;;;5113738;28;20837;-84
2023/05/23 03:38:18;;;;;;;30.90;11.80;;;16.90;99.90;;;;;;5114552;28;20447;-84
2023/05/23 03:40:46;;;;;;;31.53;13.57;;;16.90;99.90;;;;;;5114537;28;20518;-84
2023/05/23 03:43:12;;;;;;;31.87;14.20;;;16.90;99.90;;;;;;5114586;28;20460;-84
2023/05/23 03:45:40;;;;;;;28.90;11.30;;;16.90;99.90;;;;;;5114426;28;20444;-84
2023/05/23 03:48:07;;;;;;;28.20;13.17;;;16.90;99.90;;;;;;5114395;28;20447;-84
2023/05/23 03:50:34;;;;;;;30.57;13.10;;;16.80;99.90;;;;;;5114306;28;20442;-84
2023/05/23 03:53:01;;;;;;;19.30;10.43;;;16.80;99.90;;;;;;5113996;28;20997;-84
2023/05/23 03:55:30;;;;;;;27.90;12.57;;;16.90;99.90;;;;;;5114109;28;20485;-84
2023/05/23 03:57:57;;;;;;;32.37;13.80;;;16.80;99.90;;;;;;5114438;28;20443;-83
2023/05/23 04:00:25;;;;;;;28.97;14.27;;;16.90;99.90;;;;;;5114189;28;20444;-84
2023/05/23 04:02:53;;;;;;;31.23;13.23;;;16.90;99.90;;;;;;5114144;28;20535;-84
2023/05/23 04:05:20;;;;;;;31.47;12.90;;;16.90;99.90;;;;;;5113782;28;20456;-83
2023/05/23 04:07:47;;;;;;;22.67;11.70;;;16.90;99.90;;;;;;5114038;28;20947;-84
2023/05/23 04:10:13;;;;;;;24.67;12.00;;;16.90;99.90;;;;;;5114218;28;20446;-84
2023/05/23 04:12:41;;;;;;;29.20;12.20;;;16.90;99.90;;;;;;5113706;28;20479;-83
2023/05/23 04:15:10;;;;;;;27.17;11.87;;;16.90;99.90;;;;;;5113803;28;20488;-84
2023/05/23 04:17:37;;;;;;;27.73;12.80;;;16.90;99.90;;;;;;5113963;28;20505;-83
2023/05/23 04:20:08;;;;;;;23.63;12.33;;;16.90;99.90;;;;;;5114076;28;20452;-83
2023/05/23 04:22:35;;;;;;;30.77;13.33;;;16.90;99.90;;;;;;5113874;28;20493;-83
2023/05/23 04:25:01;;;;;;;31.00;14.37;;;17.00;99.90;;;;;;5113949;28;20463;-83
2023/05/23 04:27:29;;;;;;;27.93;12.80;;;17.00;99.90;;;;;;5113852;28;20470;-84
2023/05/23 04:29:57;;;;;;;29.17;11.80;;;16.90;99.90;;;;;;5113738;28;21041;-84
2023/05/23 04:32:24;;;;;;;25.50;11.20;;;16.90;99.90;;;;;;5113764;28;20461;-84
2023/05/23 04:34:50;;;;;;;27.20;11.90;;;16.90;99.90;;;;;;5113888;28;20525;-84
2023/05/23 04:37:20;;;;;;;18.83;10.07;;;16.90;99.90;;;;;;5113294;28;20824;-84
2023/05/23 04:39:47;;;;;;;27.20;12.90;;;16.90;99.90;;;;;;5114478;28;20470;-84
2023/05/23 04:42:14;;;;;;;25.83;12.03;;;16.90;99.90;;;;;;5113681;28;20442;-84
2023/05/23 04:44:41;;;;;;;29.27;11.80;;;16.80;99.90;;;;;;5113571;28;20503;-84
2023/05/23 04:47:08;;;;;;;22.10;10.63;;;16.90;99.90;;;;;;5116109;28;20451;-84
2023/05/23 04:49:36;;;;;;;24.70;13.13;;;16.90;99.90;;;;;;5117515;28;20922;-84
2023/05/23 04:52:03;;;;;;;24.50;11.00;;;16.90;99.90;;;;;;5117448;28;20456;-84
2023/05/23 04:54:31;;;;;;;17.20;10.10;;;16.90;99.90;;;;;;5117960;28;20459;-84
2023/05/23 04:56:58;;;;;;;31.23;13.17;;;16.90;99.90;;;;;;5117284;27;21005;-84
2023/05/23 04:59:25;;;;;;;28.63;13.30;;;16.90;99.90;;;;;;5117629;28;20439;-88
2023/05/23 05:01:52;;;;;;;28.67;12.23;;;16.90;99.90;;;;;;5117813;27;20446;-83
2023/05/23 05:04:19;;;;;;;21.57;10.70;;;16.90;99.90;;;;;;5117452;28;20468;-84
2023/05/23 05:06:46;;;;;;;43.27;14.57;;;16.90;99.90;;;;;;5117481;28;20448;-84
2023/05/23 05:09:13;;;;;;;28.13;12.90;;;16.90;99.90;;;;;;5117385;27;20444;-83
2023/05/23 05:11:41;;;;;;;34.97;14.33;;;16.80;99.90;;;;;;5117374;28;20454;-84
2023/05/23 05:14:08;;;;;;;25.10;12.73;;;16.80;99.90;;;;;;5116985;27;20994;-84
2023/05/23 05:16:36;;;;;;;30.40;13.67;;;16.80;99.90;;;;;;5116936;28;21006;-84
2023/05/23 05:19:03;;;;;;;28.07;12.40;;;16.80;99.90;;;;;;5117293;28;20502;-84
2023/05/23 05:21:30;;;;;;;30.47;13.93;;;16.80;99.90;;;;;;5117414;28;20439;-84
2023/05/23 05:23:58;;;;;;;32.87;14.27;;;16.90;99.90;;;;;;5117118;27;20507;-84
2023/05/23 05:26:25;;;;;;;30.80;14.23;;;16.90;99.90;;;;;;5117194;28;20492;-84
2023/05/23 05:28:53;;;;;;;30.73;14.83;;;16.90;99.90;;;;;;5116802;28;20950;-84
2023/05/23 05:31:20;;;;;;;28.97;13.23;;;16.90;99.90;;;;;;5116870;28;20965;-84
2023/05/23 05:33:48;;;;;;;26.50;13.03;;;16.80;99.90;;;;;;5116813;28;20472;-84
2023/05/23 05:36:15;;;;;;;32.33;12.57;;;16.90;99.90;;;;;;5116709;28;20471;-83
2023/05/23 05:38:42;;;;;;;26.03;12.97;;;16.90;99.90;;;;;;5116886;28;20455;-83
2023/05/23 05:41:08;;;;;;;24.97;12.17;;;16.80;99.90;;;;;;5116834;27;20459;-84
2023/05/23 05:43:35;;;;;;;30.60;13.87;;;16.80;99.90;;;;;;5116694;28;20490;-84
2023/05/23 05:46:03;;;;;;;29.60;14.37;;;16.80;99.90;;;;;;5116760;28;20443;-84
2023/05/23 05:48:30;;;;;;;27.73;11.40;;;16.80;99.90;;;;;;5116754;28;20806;-83
2023/05/23 05:50:59;;;;;;;26.23;12.90;;;16.80;99.90;;;;;;5117367;28;20447;-84
2023/05/23 05:53:26;;;;;;;28.87;14.20;;;16.80;99.90;;;;;;5116477;28;20831;-84
2023/05/23 05:55:54;;;;;;;33.20;13.50;;;16.90;99.90;;;;;;5117218;28;20472;-83
2023/05/23 05:58:21;;;;;;;30.43;14.07;;;16.80;99.90;;;;;;5115855;28;20444;-83
2023/05/23 06:00:48;;;;;;;29.13;14.07;;;16.80;99.90;;;;;;5116550;27;20439;-84
2023/05/23 06:03:16;;;;;;;28.23;13.43;;;16.80;99.90;;;;;;5116382;28;20956;-83
2023/05/23 06:05:43;;;;;;;30.30;13.27;;;16.80;99.90;;;;;;5116257;28;20935;-83
2023/05/23 06:08:10;;;;;;;24.13;12.40;;;16.80;99.90;;;;;;5116384;28;20451;-84
2023/05/23 06:10:38;;;;;;;30.80;13.93;;;16.80;99.90;;;;;;5116290;28;20436;-84
2023/05/23 06:13:05;;;;;;;29.57;14.27;;;16.80;99.90;;;;;;5115970;28;20482;-83
2023/05/23 06:15:31;;;;;;;24.20;11.53;;;16.90;99.90;;;;;;5116100;28;20588;-83
2023/05/23 06:17:58;;;;;;;25.80;11.30;;;16.90;99.90;;;;;;5115943;28;20502;-84
2023/05/23 06:20:27;;;;;;;28.03;13.27;;;16.90;99.90;;;;;;5116393;27;20440;-84
2023/05/23 06:22:54;;;;;;;27.17;12.87;;;16.90;99.90;;;;;;5116352;28;20878;-83
2023/05/23 06:25:20;;;;;;;31.07;13.20;;;16.90;99.90;;;;;;5115922;28;20460;-83
2023/05/23 06:27:47;;;;;;;24.00;11.10;;;16.90;99.90;;;;;;5116036;28;20428;-84
2023/05/23 06:30:15;;;;;;;26.83;12.83;;;16.90;99.90;;;;;;5115956;28;20447;-83
2023/05/23 06:32:41;;;;;;;26.13;13.33;;;16.90;99.90;;;;;;5116129;28;20474;-83
2023/05/23 06:35:09;;;;;;;25.27;13.57;;;16.90;99.90;;;;;;5115499;28;20468;-83
2023/05/23 06:37:39;;;;;;;23.17;11.67;;;16.90;99.90;;;;;;5115372;28;20479;-84
2023/05/23 06:40:06;;;;;;;30.37;13.10;;;17.00;99.90;;;;;;5115739;28;20435;-83
2023/05/23 06:42:33;;;;;;;28.60;12.07;;;17.00;99.90;;;;;;5115347;28;20436;-84
2023/05/23 06:44:59;;;;;;;28.37;11.57;;;17.00;99.90;;;;;;5115565;28;20467;-84
2023/05/23 06:47:26;;;;;;;25.80;10.90;;;17.00;99.90;;;;;;5115575;27;20431;-83
2023/05/23 06:49:53;;;;;;;24.63;12.60;;;17.10;99.90;;;;;;5115551;27;20463;-83
2023/05/23 06:52:19;;;;;;;24.93;11.53;;;17.10;99.90;;;;;;5115452;28;20449;-84
2023/05/23 06:54:48;;;;;;;25.40;12.20;;;17.10;99.90;;;;;;5115419;28;20529;-84
2023/05/23 06:57:14;;;;;;;24.73;10.80;;;17.10;99.90;;;;;;5115360;28;20486;-84
2023/05/23 06:59:41;;;;;;;22.60;11.40;;;17.20;99.90;;;;;;5115154;28;20807;-84
2023/05/23 07:02:08;;;;;;;25.17;11.97;;;17.10;99.90;;;;;;5115272;28;20463;-84
2023/05/23 07:04:35;;;;;;;32.43;12.33;;;17.10;99.90;;;;;;5115154;28;20467;-84
2023/05/23 07:07:02;;;;;;;22.00;10.33;;;17.20;99.90;;;;;;5115219;28;20454;-84
2023/05/23 07:09:28;;;;;;;22.53;10.83;;;17.10;99.90;;;;;;5115167;28;20439;-84
2023/05/23 07:11:56;;;;;;;20.80;10.20;;;17.00;99.90;;;;;;5114759;28;20817;-84
2023/05/23 07:14:23;;;;;;;25.10;12.93;;;17.00;99.90;;;;;;5115120;28;20471;-84
2023/05/23 07:16:50;;;;;;;25.90;11.60;;;16.90;99.90;;;;;;5114689;28;20986;-84
2023/05/23 07:19:17;;;;;;;19.83;10.90;;;17.00;99.90;;;;;;5114716;28;20442;-83
2023/05/23 07:21:43;;;;;;;19.43;10.17;;;16.90;99.90;;;;;;5114859;28;20473;-84
2023/05/23 07:24:10;;;;;;;25.13;11.50;;;16.90;99.90;;;;;;5114852;28;20464;-84
2023/05/23 07:26:37;;;;;;;22.00;10.43;;;16.80;99.90;;;;;;5114842;28;20439;-84
2023/05/23 07:29:05;;;;;;;21.80;10.90;;;16.80;99.90;;;;;;5114791;28;20447;-83
2023/05/23 07:31:32;;;;;;;16.53;10.33;;;16.80;99.90;;;;;;5116718;28;20454;-84
2023/05/23 07:33:59;;;;;;;21.57;10.07;;;16.80;99.90;;;;;;5114659;28;20467;-83
2023/05/23 07:36:26;;;;;;;17.87;9.60;;;16.70;99.90;;;;;;5114264;28;20471;-84
2023/05/23 07:38:53;;;;;;;21.43;10.27;;;16.70;99.90;;;;;;5114657;28;20504;-84
2023/05/23 07:41:19;;;;;;;17.00;9.93;;;16.70;99.90;;;;;;5114513;28;20538;-84
2023/05/23 07:43:46;;;;;;;19.70;9.60;;;16.60;99.90;;;;;;5114420;28;20470;-84
2023/05/23 07:46:15;;;;;;;22.40;10.87;;;16.60;99.90;;;;;;5114200;28;20436;-84
2023/05/23 07:48:42;;;;;;;14.77;8.73;;;16.60;99.90;;;;;;5114449;28;20503;-84
2023/05/23 07:51:09;;;;;;;25.47;11.17;;;16.60;99.90;;;;;;5114131;28;20435;-84
2023/05/23 07:53:38;;;;;;;21.13;10.00;;;16.60;99.90;;;;;;5114057;28;20990;-84
2023/05/23 07:56:05;;;;;;;27.70;10.87;;;16.60;99.90;;;;;;5114208;28;22426;-83
2023/05/23 07:58:32;;;;;;;21.67;10.40;;;16.60;99.90;;;;;;5114307;28;20443;-84
2023/05/23 08:00:59;;;;;;;24.23;8.67;;;16.60;99.90;;;;;;5114262;28;20829;-84
2023/05/23 08:03:27;;;;;;;17.97;10.10;;;16.60;99.90;;;;;;5114089;28;20443;-84
2023/05/23 08:05:53;;;;;;;19.20;10.10;;;16.60;99.90;;;;;;5114103;28;20456;-84
2023/05/23 08:08:20;;;;;;;18.00;9.33;;;16.60;99.90;;;;;;5113855;28;20793;-84
2023/05/23 08:10:47;;;;;;;19.50;10.07;;;16.70;99.90;;;;;;5114111;28;20451;-84
2023/05/23 08:13:15;;;;;;;18.80;10.07;;;16.70;99.90;;;;;;5113801;28;20479;-84
2023/05/23 08:15:41;;;;;;;20.67;9.70;;;16.80;99.90;;;;;;5114323;28;20451;-81
2023/05/23 08:18:08;;;;;;;18.40;9.33;;;16.70;99.90;;;;;;5114340;28;20483;-89
2023/05/23 08:20:36;;;;;;;22.50;10.50;;;16.70;99.90;;;;;;5114780;28;20448;-89
2023/05/23 08:23:03;;;;;;;20.40;8.83;;;16.80;99.90;;;;;;5114717;28;20439;-89
2023/05/23 08:25:30;;;;;;;15.57;9.07;;;16.90;99.90;;;;;;5114641;28;20468;-89
2023/05/23 08:27:57;;;;;;;17.20;8.53;;;16.90;99.90;;;;;;5114630;28;20617;-89
2023/05/23 08:30:25;;;;;;;14.97;7.87;;;16.90;99.90;;;;;;5114826;28;20443;-90
2023/05/23 08:32:52;;;;;;;17.70;8.57;;;16.90;99.90;;;;;;5114480;28;20447;-89
2023/05/23 08:35:19;;;;;;;18.83;9.70;;;16.90;99.90;;;;;;5114639;28;20460;-89
2023/05/23 08:37:48;;;;;;;17.00;7.80;;;16.80;99.90;;;;;;5114481;28;20483;-89
2023/05/23 08:40:19;;;;;;;16.40;7.43;;;16.70;99.90;;;;;;5114692;28;20448;-87
2023/05/23 08:42:47;;;;;;;14.57;8.27;;;16.70;99.90;;;;;;5114757;28;20439;-90
2023/05/23 08:45:14;;;;;;;13.97;8.27;;;16.70;99.90;;;;;;5114602;28;20467;-88
2023/05/23 08:47:42;;;;;;;14.27;7.93;;;16.60;99.90;;;;;;5114739;28;20445;-88
2023/05/23 08:50:12;;;;;;;17.10;8.57;;;16.60;99.90;;;;;;5114075;28;20443;-87
2023/05/23 08:52:43;;;;;;;17.30;9.13;;;16.60;99.90;;;;;;5113749;28;20448;-88
2023/05/23 08:55:12;;;;;;;15.47;7.30;;;16.70;99.90;;;;;;5115406;28;20468;-86
2023/05/23 08:57:42;;;;;;;13.70;7.77;;;16.70;99.90;;;;;;5114022;28;20503;-88
2023/05/23 09:00:13;;;;;;;18.93;8.73;;;16.70;99.90;;;;;;5114405;28;20450;-88
2023/05/23 09:02:40;;;;;;;18.87;8.70;;;16.80;99.90;;;;;;5114159;28;20436;-88
2023/05/23 09:05:08;;;;;;;15.40;6.97;;;16.90;99.90;;;;;;5114005;28;20475;-88
2023/05/23 09:07:35;;;;;;;19.87;6.70;;;16.90;99.90;;;;;;5114102;28;20804;-88
2023/05/23 09:10:03;;;;;;;19.87;8.40;;;17.00;99.90;;;;;;5114511;28;20534;-88
2023/05/23 09:12:32;;;;;;;14.93;7.93;;;17.10;99.90;;;;;;5113804;28;20494;-88
2023/05/23 09:14:59;;;;;;;12.30;6.63;;;17.10;99.90;;;;;;5114165;28;20475;-88
2023/05/23 09:17:25;;;;;;;18.13;8.97;;;17.20;99.90;;;;;;5114575;28;20831;-89
2023/05/23 09:19:52;;;;;;;17.83;7.30;;;17.20;99.90;;;;;;5114487;28;20446;-88
2023/05/23 09:22:24;;;;;;;11.60;6.57;;;17.20;99.90;;;;;;5114084;28;20809;-88
2023/05/23 09:24:51;;;;;;;11.63;7.00;;;17.30;99.90;;;;;;5114079;28;20837;-88
2023/05/23 09:27:17;;;;;;;13.00;7.00;;;17.30;99.90;;;;;;5114170;28;20796;-88
2023/05/23 09:29:46;;;;;;;17.37;7.97;;;17.20;99.90;;;;;;5114028;28;20432;-88
2023/05/23 09:32:15;;;;;;;11.80;6.00;;;17.20;99.90;;;;;;5114070;28;20452;-88
2023/05/23 09:34:42;;;;;;;11.93;6.57;;;17.10;99.90;;;;;;5116821;28;20978;-88
2023/05/23 09:37:17;;;;;;;13.07;7.13;;;17.10;99.90;;;;;;5117537;27;20464;-88
2023/05/23 09:39:47;;;;;;;12.80;7.00;;;17.10;99.90;;;;;;5117534;28;20427;-88
2023/05/23 09:42:20;;;;;;;13.73;6.87;;;17.10;99.90;;;;;;5117810;28;20431;-88
2023/05/23 09:44:48;;;;;;;10.60;6.10;;;17.10;99.90;;;;;;5117291;28;20486;-88
2023/05/23 09:47:16;;;;;;;11.70;6.13;;;17.10;99.90;;;;;;5117452;28;20447;-88
2023/05/23 09:49:43;;;;;;;10.73;4.77;;;17.10;99.90;;;;;;5117037;28;20455;-87
2023/05/23 09:52:11;;;;;;;11.37;6.10;;;17.20;99.90;;;;;;5117279;28;20550;-88
2023/05/23 09:54:38;;;;;;;9.23;5.13;;;17.40;99.90;;;;;;5117350;28;20503;-88
2023/05/23 09:57:09;;;;;;;8.83;5.10;;;17.60;99.90;;;;;;5117303;28;20479;-88
2023/05/23 09:59:39;;;;;;;8.57;5.37;;;17.70;99.90;;;;;;5117504;28;20420;-88
2023/05/23 10:02:11;;;;;;;10.37;5.40;;;17.80;99.90;;;;;;5117044;28;20448;-88
2023/05/23 10:04:41;;;;;;;11.13;6.47;;;17.90;99.90;;;;;;5117143;28;20470;-87
2023/05/23 10:07:14;;;;;;;8.87;4.70;;;17.80;99.90;;;;;;5117252;28;20435;-89
2023/05/23 10:09:45;;;;;;;11.90;5.60;;;17.80;99.90;;;;;;5116852;27;20471;-88
2023/05/23 10:12:41;;;;;;;7.27;5.33;;;17.60;99.90;;;;;;5116322;28;20444;-88
2023/05/23 10:15:09;;;;;;;11.37;5.77;;;17.60;99.90;;;;;;5117093;28;20464;-88
2023/05/23 10:18:00;;;;;;;11.37;5.27;;;17.60;99.90;;;;;;5117002;28;20511;-88
2023/05/23 10:20:31;;;;;;;6.30;4.43;;;17.50;99.90;;;;;;5116951;27;20432;-88
2023/05/23 10:23:00;;;;;;;9.03;5.60;;;17.60;99.90;;;;;;5116985;28;21005;-89
2023/05/23 10:25:27;;;;;;;12.27;7.03;;;17.80;99.90;;;;;;5116482;28;20516;-89
2023/05/23 10:27:57;;;;;;;18.43;6.30;;;18.00;99.90;;;;;;5116423;28;20412;-88
2023/05/23 10:30:25;;;;;;;8.90;5.07;;;18.20;99.90;;;;;;5116696;28;20439;-88
2023/05/23 10:32:54;;;;;;;7.50;4.60;;;18.30;99.90;;;;;;5116534;28;20984;-89
2023/05/23 10:35:29;;;;;;;6.47;5.23;;;18.50;99.90;;;;;;5116554;28;20480;-89
2023/05/23 10:38:01;;;;;;;9.77;5.77;;;18.80;99.90;;;;;;5116852;28;20467;-89
2023/05/23 10:40:37;;;;;;;9.30;6.60;;;18.90;99.90;;;;;;5116598;28;20829;-90
2023/05/23 10:43:13;;;;;;;9.33;5.03;;;19.10;99.90;;;;;;5116478;28;20431;-89
2023/05/23 10:45:42;;;;;;;7.27;4.40;;;19.10;99.90;;;;;;5116185;28;20557;-89
2023/05/23 10:48:21;;;;;;;6.03;4.60;;;19.10;99.90;;;;;;5116225;28;20522;-88
2023/05/23 10:51:03;;;;;;;6.90;4.53;;;19.10;99.90;;;;;;5116048;28;20442;-89
2023/05/23 10:53:30;;;;;;;10.20;4.90;;;19.20;99.90;;;;;;5116255;28;20480;-88
2023/05/23 10:55:57;;;;;;;10.07;6.10;;;19.30;99.90;;;;;;5115992;28;20932;-88
2023/05/23 10:58:24;;;;;;;8.43;4.60;;;19.30;99.90;;;;;;5116034;28;20475;-89
2023/05/23 11:00:53;;;;;;;6.13;4.47;;;19.40;99.90;;;;;;5115950;28;20458;-89
2023/05/23 11:03:32;;;;;;;7.53;4.90;;;19.50;99.90;;;;;;5116034;28;20447;-89
2023/05/23 11:05:59;;;;;;;6.70;4.50;;;19.70;99.90;;;;;;5116089;28;20431;-89
2023/05/23 11:08:26;;;;;;;7.40;4.33;;;19.80;99.90;;;;;;5115975;28;20448;-89
2023/05/23 11:10:55;;;;;;;7.07;4.70;;;19.80;99.90;;;;;;5115966;28;20451;-89
2023/05/23 11:13:23;;;;;;;6.47;4.80;;;19.80;99.90;;;;;;5115418;28;20474;-88
2023/05/23 11:15:50;;;;;;;4.90;4.40;;;19.80;99.90;;;;;;5115969;28;20443;-89
2023/05/23 11:18:27;;;;;;;9.73;5.50;;;19.90;99.90;;;;;;5115934;28;20483;-89
2023/05/23 11:20:58;;;;;;;6.67;4.80;;;20.00;99.90;;;;;;5115878;28;20463;-89
2023/05/23 11:23:40;;;;;;;6.87;4.93;;;20.10;99.90;;;;;;5115893;28;20423;-89
2023/05/23 11:26:29;;;;;;;8.83;5.20;;;20.20;99.90;;;;;;5115783;28;20476;-89
2023/05/23 11:28:56;;;;;;;9.27;5.03;;;20.40;99.90;;;;;;5115655;28;20420;-89
2023/05/23 11:31:23;;;;;;;8.83;4.73;;;20.60;99.90;;;;;;5115694;28;20443;-89
2023/05/23 11:33:52;;;;;;;6.80;4.83;;;20.60;99.90;;;;;;5115548;28;20524;-89
2023/05/23 11:36:21;;;;;;;5.23;4.33;;;20.60;99.90;;;;;;5115627;28;20443;-89
2023/05/23 11:38:48;;;;;;;9.17;5.00;;;20.60;99.90;;;;;;5115495;28;20486;-89
2023/05/23 11:41:15;;;;;;;6.67;4.37;;;20.60;99.90;;;;;;5115173;28;20944;-89
2023/05/23 11:43:50;;;;;;;7.30;4.73;;;20.30;99.90;;;;;;5115494;28;20463;-90
2023/05/23 11:46:17;;;;;;;8.43;4.87;;;20.10;99.90;;;;;;5115358;28;20444;-88
2023/05/23 11:48:45;;;;;;;8.50;4.30;;;20.00;99.90;;;;;;5115380;28;20809;-88
2023/05/23 11:51:14;;;;;;;7.87;5.27;;;19.90;99.90;;;;;;5115193;28;20449;-89
2023/05/23 11:53:41;;;;;;;7.23;4.13;;;20.00;99.90;;;;;;5115044;28;20451;-89
2023/05/23 11:56:08;;;;;;;9.47;4.50;;;20.20;99.90;;;;;;5114611;28;20451;-90
2023/05/23 11:58:36;;;;;;;4.57;3.40;;;20.00;99.90;;;;;;5115144;28;20478;-89
2023/05/23 12:01:05;;;;;;;4.17;3.77;;;20.10;99.90;;;;;;5115141;28;20451;-89
2023/05/23 12:03:32;;;;;;;9.50;3.13;;;20.30;99.90;;;;;;5114944;28;20458;-89
2023/05/23 12:05:59;;;;;;;4.80;4.00;;;20.50;99.90;;;;;;5115014;28;20450;-89
2023/05/23 12:08:27;;;;;;;5.27;3.47;;;20.80;99.90;;;;;;5114970;28;20800;-90
2023/05/23 12:10:58;;;;;;;3.80;2.77;;;20.90;99.90;;;;;;5114772;28;20443;-89
2023/05/23 12:13:26;;;;;;;7.67;3.70;;;20.80;99.90;;;;;;5114552;28;20479;-88
2023/05/23 12:15:55;;;;;;;7.13;3.93;;;20.70;99.90;;;;;;5114772;28;20530;-89
2023/05/23 12:18:22;;;;;;;6.97;3.97;;;20.50;99.90;;;;;;5114849;28;20531;-90
2023/05/23 12:20:49;;;;;;;4.00;3.13;;;20.40;99.90;;;;;;5114698;28;20486;-89
2023/05/23 12:23:21;;;;;;;5.50;3.43;;;20.30;99.90;;;;;;5114658;28;20476;-89
2023/05/23 12:25:52;;;;;;;4.00;3.40;;;20.20;99.90;;;;;;5114873;28;20450;-89
2023/05/23 12:28:19;;;;;;;6.63;2.87;;;20.00;99.90;;;;;;5114668;28;20774;-88
2023/05/23 12:30:47;;;;;;;6.40;2.90;;;20.00;99.90;;;;;;5114650;28;20451;-89
2023/05/23 12:33:14;;;;;;;4.07;2.80;;;19.90;99.90;;;;;;5114770;28;20442;-89
2023/05/23 12:35:43;;;;;;;4.33;2.77;;;19.90;99.90;;;;;;5114697;28;20479;-89
2023/05/23 12:38:10;;;;;;;4.60;3.13;;;20.00;99.90;;;;;;5114721;28;20836;-89